Accueil
METAR-TAF:

METAR-TAF

Aéroports :

Altenstadt, Allemagne

latitude: 47-50N, longitude: 010-52E, altitude: 739 m

Observation

Le bulletin a été fait il y a 38 minutes, à 09:20 UTC
Vent 11 kt de est/nord-est
Température 13°C
Humidité 51%
Pression 1020 hPa

METAR: ETHA 300920Z AUTO 06011KT //// // ////// 13/03 Q1020 ///

Heure: 11:58 (09:58 UTC)

Prévision

Le bulletin a été fait il y a 25 heures et 34 minutes, à 08:24 UTC
Prévision valable du 29 à 08 UTC au 29 à 17 UTC
Vent 10 kt de est avec des rafales jusqu'à 20 kt
Visibilité 10 km ou plus
Nuages épars à une hauteur de 3000 ft
Nuages épars à une hauteur de 8000 ft
Temporairement
du 29 à 11 UTC au 29 à 17 UTC
Vent 15 kt de est avec des rafales jusqu'à 25 kt
Visibilité: 0930 m
Nuages épars à une hauteur de 4000 ft
Nuages fragmentés à une hauteur de 7000 ft

TAF: ETHA 290824Z 2908/2917 08010G20KT 9999 NSW SCT030 SCT080 TEMPO 2911/2917 09015G25KT 9999 NSW SCT040 BKN070 CANCEL 0930

Observations et prévisions météorologiques de plus de 4000 aéroports (messages METAR et TAF).

Les stations disponibles sont représentées par des disques jaunes et rouges sur la carte.

Passer la souris dessus pour voir le nom de la station.

Cliquer dessus pour voir les observations et prévisions météorologiques.

Pour changer de carte: cliquez sur les boutons verts avec une croix noire pour zoomer, sur le bouton vert avec un tiret pour effectuer un zoom arrière, ou sur les flèches vertes pour les cartes adjacentes.


METAR-TAF: